Nissho Maru — JD2650 — position and weather

sailwx.info

Track history (hours):
 
Tides and Currents Weather Stations Pressure Air Temp Water Temp Dewpoint Dewpoint Depression Visibility Wind Speed Wind Dir Waves Ship Positions

Nissho Maru

Last reported at 2017-Feb-12 01:28 UTC. Time now 2017-Feb-19 16:58 UTC.
Position N 35°07' E 139°45'.

Length 75 m.

Type: Cargo ship. MMSI: 431000572.

Date/timePositionNaut miles runAvg speedWind from/ knotsBaromVisibWave heightAir tempDewpointWater temp
2017-Feb-12 01:28N 35°07' E 139°45'1111.9
2017-Feb-12 00:34N 35°18' E 139°44'1111.4
2017-Feb-11 23:33N 35°29' E 139°42'2 1.8
2017-Feb-11 22:31N 35°30' E 139°44'0 0.0
2017-Feb-11 21:31N 35°30' E 139°44'0 0.0
2017-Feb-11 20:31N 35°30' E 139°44'0 0.0
2017-Feb-11 19:31N 35°30' E 139°44'0 0.0
2017-Feb-11 18:31N 35°30' E 139°44'0 0.0
2017-Feb-11 17:31N 35°30' E 139°44'0 0.0
2017-Feb-11 16:31N 35°30' E 139°44'0 0.0
2017-Feb-11 15:31N 35°30' E 139°44'0 0.0
2017-Feb-11 14:31N 35°30' E 139°44'0 0.0
2017-Feb-11 13:31N 35°30' E 139°44'0 0.0
2017-Feb-11 12:31N 35°30' E 139°44'0 0.0
2017-Feb-11 11:31N 35°30' E 139°44'0 0.0
2017-Feb-11 10:31N 35°30' E 139°44'0 0.0
2017-Feb-11 09:31N 35°30' E 139°44'0 0.0
2017-Feb-11 08:31N 35°30' E 139°44'0 0.0
2017-Feb-11 07:31N 35°30' E 139°44'0 0.0
2017-Feb-11 06:31N 35°30' E 139°44'0 0.0
2017-Feb-11 05:31N 35°30' E 139°44'0 0.0
2017-Feb-11 04:31N 35°30' E 139°44'0 0.0
2017-Feb-11 03:31N 35°30' E 139°44'0 0.0
2017-Feb-11 02:31N 35°30' E 139°44'0 0.0
2017-Feb-11 01:31N 35°30' E 139°44'0 0.0
2017-Feb-11 00:31N 35°30' E 139°44'0 0.0
2017-Feb-10 23:31N 35°30' E 139°44'0 0.0
2017-Feb-10 22:31N 35°30' E 139°44'0 0.0
2017-Feb-10 21:31N 35°30' E 139°44'0 0.0
2017-Feb-10 20:31N 35°30' E 139°44'0 0.0
2017-Feb-10 19:31N 35°30' E 139°44'0 0.0
2017-Feb-10 18:31N 35°30' E 139°44'0 0.0
2017-Feb-10 17:31N 35°30' E 139°44'0 0.0
2017-Feb-10 16:31N 35°30' E 139°44'0 0.0
2017-Feb-10 15:31N 35°30' E 139°44'0 0.0
2017-Feb-10 14:31N 35°30' E 139°44'0 0.0
2017-Feb-10 13:31N 35°30' E 139°44'0 0.0
2017-Feb-10 12:28N 35°30' E 139°44'0 0.0
2017-Feb-10 11:31N 35°30' E 139°44'0 0.0
2017-Feb-10 10:31N 35°30' E 139°44'0 0.0
2017-Feb-10 09:31N 35°30' E 139°44'0 0.0
2017-Feb-10 08:31N 35°30' E 139°44'0 0.0
2017-Feb-10 07:28N 35°30' E 139°44'0 0.0
2017-Feb-10 06:31N 35°30' E 139°44'0 0.0
2017-Feb-10 05:31N 35°30' E 139°44'0 0.0
2017-Feb-10 04:31N 35°30' E 139°44'0 0.0
2017-Feb-10 03:31N 35°30' E 139°44'0 0.0
2017-Feb-10 02:31N 35°30' E 139°44'0 0.0
2017-Feb-10 01:31N 35°30' E 139°44'0 0.0
2017-Feb-10 00:31N 35°30' E 139°44'0 0.0
2017-Feb-09 23:31N 35°30' E 139°44'3 2.9
2017-Feb-09 22:34N 35°28' E 139°43'3 3.0
2017-Feb-09 21:32N 35°29' E 139°39'0 0.0
2017-Feb-09 20:32N 35°29' E 139°39'0 0.0
2017-Feb-09 19:32N 35°29' E 139°39'0 0.0
2017-Feb-09 18:32N 35°29' E 139°39'0 0.0
2017-Feb-09 17:32N 35°29' E 139°39'0 0.0
2017-Feb-09 16:32N 35°29' E 139°39'0 0.0
2017-Feb-09 15:32N 35°29' E 139°39'0 0.0
2017-Feb-09 14:32N 35°29' E 139°39'0 0.0
2017-Feb-09 13:32N 35°29' E 139°39'0 0.0
2017-Feb-09 12:32N 35°29' E 139°39'0 0.0
2017-Feb-09 11:32N 35°29' E 139°39'0 0.0
2017-Feb-09 10:32N 35°29' E 139°39'0 0.0
2017-Feb-09 09:32N 35°29' E 139°39'0 0.0
2017-Feb-09 08:32N 35°29' E 139°39'0 0.0
2017-Feb-09 07:32N 35°29' E 139°39'0 0.0
2017-Feb-09 06:32N 35°29' E 139°39'0 0.0
2017-Feb-09 05:33N 35°29' E 139°39'9 8.8
2017-Feb-09 04:32N 35°24' E 139°48'3 0.4
2017-Feb-08 21:33N 35°22' E 139°51'2 1.8
2017-Feb-08 20:31N 35°24' E 139°50'0 0.0
2017-Feb-08 19:25N 35°24' E 139°50'0 0.1
2017-Feb-08 18:31N 35°24' E 139°50'0 0.0
2017-Feb-08 16:31N 35°24' E 139°50'0 0.1
2017-Feb-08 15:31N 35°24' E 139°50'0 0.0
2017-Feb-08 14:31N 35°24' E 139°50'0 0.0
2017-Feb-08 13:31N 35°24' E 139°50'0 0.0
2017-Feb-08 12:31N 35°24' E 139°50'0 0.0
2017-Feb-08 11:31N 35°24' E 139°50'0 0.0
2017-Feb-08 10:25N 35°24' E 139°50'4 5.2
2017-Feb-08 09:33N 35°21' E 139°45'250 5.3
2017-Feb-06 10:31N 34°08' E 134°54'1513.5
2017-Feb-06 09:26N 34°22' E 135°00'1213.3
2017-Feb-06 08:33N 34°30' E 135°11'1313.1
2017-Feb-06 07:33N 34°38' E 135°23'3 1.6
2017-Feb-06 05:21N 34°40' E 135°27'0 0.0
2017-Feb-05 22:33N 34°40' E 135°27'7 6.6
2017-Feb-05 21:33N 34°37' E 135°20'1 0.7
2017-Feb-05 20:22N 34°36' E 135°19'6 7.7
2017-Feb-05 19:33N 34°32' E 135°13'2211.2
2017-Feb-05 17:33N 34°13' E 134°59'  
Track history (hours):
 
Tides and Currents Weather Stations Pressure Air Temp Water Temp Dewpoint Dewpoint Depression Visibility Wind Speed Wind Dir Waves Ship Positions

Nissho Maru

Last reported at 2017-Feb-12 01:28 UTC. Time now 2017-Feb-19 16:58 UTC.
Position N 35°07' E 139°45'.

Length 75 m.

Type: Cargo ship. MMSI: 431000572.

Date/timePositionNaut miles runAvg speedWind from/ knotsBaromVisibWave heightAir tempDewpointWater temp
2017-Feb-12 01:28N 35°07' E 139°45'1111.9
2017-Feb-12 00:34N 35°18' E 139°44'1111.4
2017-Feb-11 23:33N 35°29' E 139°42'2 1.8
2017-Feb-11 22:31N 35°30' E 139°44'0 0.0
2017-Feb-11 21:31N 35°30' E 139°44'0 0.0
2017-Feb-11 20:31N 35°30' E 139°44'0 0.0
2017-Feb-11 19:31N 35°30' E 139°44'0 0.0
2017-Feb-11 18:31N 35°30' E 139°44'0 0.0
2017-Feb-11 17:31N 35°30' E 139°44'0 0.0
2017-Feb-11 16:31N 35°30' E 139°44'0 0.0
2017-Feb-11 15:31N 35°30' E 139°44'0 0.0
2017-Feb-11 14:31N 35°30' E 139°44'0 0.0
2017-Feb-11 13:31N 35°30' E 139°44'0 0.0
2017-Feb-11 12:31N 35°30' E 139°44'0 0.0
2017-Feb-11 11:31N 35°30' E 139°44'0 0.0
2017-Feb-11 10:31N 35°30' E 139°44'0 0.0
2017-Feb-11 09:31N 35°30' E 139°44'0 0.0
2017-Feb-11 08:31N 35°30' E 139°44'0 0.0
2017-Feb-11 07:31N 35°30' E 139°44'0 0.0
2017-Feb-11 06:31N 35°30' E 139°44'0 0.0
2017-Feb-11 05:31N 35°30' E 139°44'0 0.0
2017-Feb-11 04:31N 35°30' E 139°44'0 0.0
2017-Feb-11 03:31N 35°30' E 139°44'0 0.0
2017-Feb-11 02:31N 35°30' E 139°44'0 0.0
2017-Feb-11 01:31N 35°30' E 139°44'0 0.0
2017-Feb-11 00:31N 35°30' E 139°44'0 0.0
2017-Feb-10 23:31N 35°30' E 139°44'0 0.0
2017-Feb-10 22:31N 35°30' E 139°44'0 0.0
2017-Feb-10 21:31N 35°30' E 139°44'0 0.0
2017-Feb-10 20:31N 35°30' E 139°44'0 0.0
2017-Feb-10 19:31N 35°30' E 139°44'0 0.0
2017-Feb-10 18:31N 35°30' E 139°44'0 0.0
2017-Feb-10 17:31N 35°30' E 139°44'0 0.0
2017-Feb-10 16:31N 35°30' E 139°44'0 0.0
2017-Feb-10 15:31N 35°30' E 139°44'0 0.0
2017-Feb-10 14:31N 35°30' E 139°44'0 0.0
2017-Feb-10 13:31N 35°30' E 139°44'0 0.0
2017-Feb-10 12:28N 35°30' E 139°44'0 0.0
2017-Feb-10 11:31N 35°30' E 139°44'0 0.0
2017-Feb-10 10:31N 35°30' E 139°44'0 0.0
2017-Feb-10 09:31N 35°30' E 139°44'0 0.0
2017-Feb-10 08:31N 35°30' E 139°44'0 0.0
2017-Feb-10 07:28N 35°30' E 139°44'0 0.0
2017-Feb-10 06:31N 35°30' E 139°44'0 0.0
2017-Feb-10 05:31N 35°30' E 139°44'0 0.0
2017-Feb-10 04:31N 35°30' E 139°44'0 0.0
2017-Feb-10 03:31N 35°30' E 139°44'0 0.0
2017-Feb-10 02:31N 35°30' E 139°44'0 0.0
2017-Feb-10 01:31N 35°30' E 139°44'0 0.0
2017-Feb-10 00:31N 35°30' E 139°44'0 0.0
2017-Feb-09 23:31N 35°30' E 139°44'3 2.9
2017-Feb-09 22:34N 35°28' E 139°43'3 3.0
2017-Feb-09 21:32N 35°29' E 139°39'0 0.0
2017-Feb-09 20:32N 35°29' E 139°39'0 0.0
2017-Feb-09 19:32N 35°29' E 139°39'0 0.0
2017-Feb-09 18:32N 35°29' E 139°39'0 0.0
2017-Feb-09 17:32N 35°29' E 139°39'0 0.0
2017-Feb-09 16:32N 35°29' E 139°39'0 0.0
2017-Feb-09 15:32N 35°29' E 139°39'0 0.0
2017-Feb-09 14:32N 35°29' E 139°39'0 0.0
2017-Feb-09 13:32N 35°29' E 139°39'0 0.0
2017-Feb-09 12:32N 35°29' E 139°39'0 0.0
2017-Feb-09 11:32N 35°29' E 139°39'0 0.0
2017-Feb-09 10:32N 35°29' E 139°39'0 0.0
2017-Feb-09 09:32N 35°29' E 139°39'0 0.0
2017-Feb-09 08:32N 35°29' E 139°39'0 0.0
2017-Feb-09 07:32N 35°29' E 139°39'0 0.0
2017-Feb-09 06:32N 35°29' E 139°39'0 0.0
2017-Feb-09 05:33N 35°29' E 139°39'9 8.8
2017-Feb-09 04:32N 35°24' E 139°48'3 0.4
2017-Feb-08 21:33N 35°22' E 139°51'2 1.8
2017-Feb-08 20:31N 35°24' E 139°50'0 0.0
2017-Feb-08 19:25N 35°24' E 139°50'0 0.1
2017-Feb-08 18:31N 35°24' E 139°50'0 0.0
2017-Feb-08 16:31N 35°24' E 139°50'0 0.1
2017-Feb-08 15:31N 35°24' E 139°50'0 0.0
2017-Feb-08 14:31N 35°24' E 139°50'0 0.0
2017-Feb-08 13:31N 35°24' E 139°50'0 0.0
2017-Feb-08 12:31N 35°24' E 139°50'0 0.0
2017-Feb-08 11:31N 35°24' E 139°50'0 0.0
2017-Feb-08 10:25N 35°24' E 139°50'4 5.2
2017-Feb-08 09:33N 35°21' E 139°45'250 5.3
2017-Feb-06 10:31N 34°08' E 134°54'1513.5
2017-Feb-06 09:26N 34°22' E 135°00'1213.3
2017-Feb-06 08:33N 34°30' E 135°11'1313.1
2017-Feb-06 07:33N 34°38' E 135°23'3 1.6
2017-Feb-06 05:21N 34°40' E 135°27'0 0.0
2017-Feb-05 22:33N 34°40' E 135°27'7 6.6
2017-Feb-05 21:33N 34°37' E 135°20'1 0.7
2017-Feb-05 20:22N 34°36' E 135°19'6 7.7
2017-Feb-05 19:33N 34°32' E 135°13'2211.2
2017-Feb-05 17:33N 34°13' E 134°59'  

Dump ship's entire track history